sensor_id;sensor_type;location;lat;lon;timestamp;P1;durP1;ratioP1;P2;durP2;ratioP2
18947;SDS011;9607;51.600;7.558;2022-12-24T00:00:08;37.88;;;9.57;;
18947;SDS011;9607;51.600;7.558;2022-12-24T00:02:36;31.00;;;9.40;;
18947;SDS011;9607;51.600;7.558;2022-12-24T00:05:05;33.10;;;8.30;;
18947;SDS011;9607;51.600;7.558;2022-12-24T00:07:32;29.38;;;8.55;;
18947;SDS011;9607;51.600;7.558;2022-12-24T00:09:59;29.50;;;8.57;;
18947;SDS011;9607;51.600;7.558;2022-12-24T00:12:26;29.02;;;8.35;;
18947;SDS011;9607;51.600;7.558;2022-12-24T00:14:53;35.05;;;8.63;;
18947;SDS011;9607;51.600;7.558;2022-12-24T00:17:19;33.50;;;9.50;;
18947;SDS011;9607;51.600;7.558;2022-12-24T00:19:46;29.73;;;8.40;;
18947;SDS011;9607;51.600;7.558;2022-12-24T00:22:14;31.73;;;8.43;;
18947;SDS011;9607;51.600;7.558;2022-12-24T00:24:41;31.48;;;9.20;;
18947;SDS011;9607;51.600;7.558;2022-12-24T00:27:08;33.08;;;8.60;;
18947;SDS011;9607;51.600;7.558;2022-12-24T00:29:35;31.02;;;9.02;;
18947;SDS011;9607;51.600;7.558;2022-12-24T00:32:02;30.13;;;8.75;;
18947;SDS011;9607;51.600;7.558;2022-12-24T00:34:32;35.42;;;9.15;;
18947;SDS011;9607;51.600;7.558;2022-12-24T00:36:58;30.13;;;8.65;;
18947;SDS011;9607;51.600;7.558;2022-12-24T00:39:27;32.25;;;8.23;;
18947;SDS011;9607;51.600;7.558;2022-12-24T00:41:53;35.22;;;9.80;;
18947;SDS011;9607;51.600;7.558;2022-12-24T00:44:20;33.53;;;9.32;;
18947;SDS011;9607;51.600;7.558;2022-12-24T00:46:47;37.72;;;9.73;;
18947;SDS011;9607;51.600;7.558;2022-12-24T00:49:15;41.53;;;9.93;;
18947;SDS011;9607;51.600;7.558;2022-12-24T00:51:42;44.50;;;10.35;;
18947;SDS011;9607;51.600;7.558;2022-12-24T00:54:09;31.75;;;9.73;;
18947;SDS011;9607;51.600;7.558;2022-12-24T00:56:38;40.60;;;10.82;;
18947;SDS011;9607;51.600;7.558;2022-12-24T00:59:05;35.08;;;9.27;;
18947;SDS011;9607;51.600;7.558;2022-12-24T01:01:31;29.20;;;9.30;;
18947;SDS011;9607;51.600;7.558;2022-12-24T01:03:59;39.53;;;9.95;;
18947;SDS011;9607;51.600;7.558;2022-12-24T01:06:40;26.20;;;9.02;;
18947;SDS011;9607;51.600;7.558;2022-12-24T01:09:07;29.55;;;8.88;;
18947;SDS011;9607;51.600;7.558;2022-12-24T01:11:34;35.47;;;9.05;;
18947;SDS011;9607;51.600;7.558;2022-12-24T01:14:02;40.40;;;9.27;;
18947;SDS011;9607;51.600;7.558;2022-12-24T01:16:29;39.58;;;8.82;;
18947;SDS011;9607;51.600;7.558;2022-12-24T01:18:56;30.63;;;9.45;;
18947;SDS011;9607;51.600;7.558;2022-12-24T01:21:22;32.45;;;9.10;;
18947;SDS011;9607;51.600;7.558;2022-12-24T01:23:49;44.35;;;10.43;;
18947;SDS011;9607;51.600;7.558;2022-12-24T01:26:17;36.05;;;8.10;;
18947;SDS011;9607;51.600;7.558;2022-12-24T01:28:44;42.10;;;8.85;;
18947;SDS011;9607;51.600;7.558;2022-12-24T01:31:13;34.08;;;8.70;;
18947;SDS011;9607;51.600;7.558;2022-12-24T01:33:41;35.17;;;8.32;;
18947;SDS011;9607;51.600;7.558;2022-12-24T01:36:08;33.83;;;8.50;;
18947;SDS011;9607;51.600;7.558;2022-12-24T01:38:36;42.67;;;8.15;;
18947;SDS011;9607;51.600;7.558;2022-12-24T01:41:03;26.85;;;7.50;;
18947;SDS011;9607;51.600;7.558;2022-12-24T01:43:47;34.63;;;7.95;;
18947;SDS011;9607;51.600;7.558;2022-12-24T01:46:17;31.88;;;7.70;;
18947;SDS011;9607;51.600;7.558;2022-12-24T01:48:48;34.85;;;8.45;;
18947;SDS011;9607;51.600;7.558;2022-12-24T01:51:20;36.38;;;7.68;;
18947;SDS011;9607;51.600;7.558;2022-12-24T01:53:53;36.92;;;8.82;;
18947;SDS011;9607;51.600;7.558;2022-12-24T01:56:22;43.08;;;8.90;;
18947;SDS011;9607;51.600;7.558;2022-12-24T01:58:51;35.35;;;8.10;;
18947;SDS011;9607;51.600;7.558;2022-12-24T02:01:23;31.63;;;8.68;;
18947;SDS011;9607;51.600;7.558;2022-12-24T02:03:50;33.47;;;7.70;;
18947;SDS011;9607;51.600;7.558;2022-12-24T02:06:18;38.05;;;8.90;;
18947;SDS011;9607;51.600;7.558;2022-12-24T02:08:45;44.05;;;9.30;;
18947;SDS011;9607;51.600;7.558;2022-12-24T02:11:13;36.15;;;7.55;;
18947;SDS011;9607;51.600;7.558;2022-12-24T02:13:41;39.90;;;6.93;;
18947;SDS011;9607;51.600;7.558;2022-12-24T02:16:13;35.50;;;7.72;;
18947;SDS011;9607;51.600;7.558;2022-12-24T02:18:51;41.10;;;7.30;;
18947;SDS011;9607;51.600;7.558;2022-12-24T02:21:36;28.95;;;6.95;;
18947;SDS011;9607;51.600;7.558;2022-12-24T02:27:25;37.55;;;7.35;;
18947;SDS011;9607;51.600;7.558;2022-12-24T02:30:10;34.22;;;6.78;;
18947;SDS011;9607;51.600;7.558;2022-12-24T02:32:43;33.75;;;7.05;;
18947;SDS011;9607;51.600;7.558;2022-12-24T02:35:19;35.83;;;7.85;;
18947;SDS011;9607;51.600;7.558;2022-12-24T02:37:51;31.40;;;7.75;;
18947;SDS011;9607;51.600;7.558;2022-12-24T02:40:24;24.27;;;6.90;;
18947;SDS011;9607;51.600;7.558;2022-12-24T02:42:55;41.15;;;7.72;;
18947;SDS011;9607;51.600;7.558;2022-12-24T02:45:29;34.42;;;7.88;;
18947;SDS011;9607;51.600;7.558;2022-12-24T02:47:58;33.75;;;8.63;;
18947;SDS011;9607;51.600;7.558;2022-12-24T02:50:27;31.50;;;8.25;;
18947;SDS011;9607;51.600;7.558;2022-12-24T02:52:54;34.92;;;7.97;;
18947;SDS011;9607;51.600;7.558;2022-12-24T02:55:22;34.25;;;7.68;;
18947;SDS011;9607;51.600;7.558;2022-12-24T02:58:03;39.72;;;8.98;;
18947;SDS011;9607;51.600;7.558;2022-12-24T03:00:42;39.03;;;8.30;;
18947;SDS011;9607;51.600;7.558;2022-12-24T03:03:23;31.10;;;7.93;;
18947;SDS011;9607;51.600;7.558;2022-12-24T03:06:06;38.47;;;10.73;;
18947;SDS011;9607;51.600;7.558;2022-12-24T03:08:43;37.65;;;7.85;;
18947;SDS011;9607;51.600;7.558;2022-12-24T03:11:15;33.40;;;7.88;;
18947;SDS011;9607;51.600;7.558;2022-12-24T03:13:43;40.75;;;8.50;;
18947;SDS011;9607;51.600;7.558;2022-12-24T03:16:14;36.47;;;7.90;;
18947;SDS011;9607;51.600;7.558;2022-12-24T03:18:45;33.50;;;7.43;;
18947;SDS011;9607;51.600;7.558;2022-12-24T03:21:15;37.05;;;8.20;;
18947;SDS011;9607;51.600;7.558;2022-12-24T03:23:46;42.40;;;8.20;;
18947;SDS011;9607;51.600;7.558;2022-12-24T03:26:13;31.42;;;7.47;;
18947;SDS011;9607;51.600;7.558;2022-12-24T03:28:43;34.58;;;7.80;;
18947;SDS011;9607;51.600;7.558;2022-12-24T03:31:10;45.05;;;8.60;;
18947;SDS011;9607;51.600;7.558;2022-12-24T03:33:39;42.60;;;8.73;;
18947;SDS011;9607;51.600;7.558;2022-12-24T03:36:07;36.00;;;8.98;;
18947;SDS011;9607;51.600;7.558;2022-12-24T03:38:34;31.83;;;8.02;;
18947;SDS011;9607;51.600;7.558;2022-12-24T03:41:02;39.75;;;7.80;;
18947;SDS011;9607;51.600;7.558;2022-12-24T03:43:29;48.38;;;9.70;;
18947;SDS011;9607;51.600;7.558;2022-12-24T03:45:56;37.95;;;8.50;;
18947;SDS011;9607;51.600;7.558;2022-12-24T03:48:22;40.35;;;9.73;;
18947;SDS011;9607;51.600;7.558;2022-12-24T03:50:51;31.48;;;7.72;;
18947;SDS011;9607;51.600;7.558;2022-12-24T03:53:17;35.95;;;8.77;;
18947;SDS011;9607;51.600;7.558;2022-12-24T03:55:44;29.23;;;7.03;;
18947;SDS011;9607;51.600;7.558;2022-12-24T03:58:12;34.80;;;8.38;;
18947;SDS011;9607;51.600;7.558;2022-12-24T04:00:39;37.88;;;7.90;;
18947;SDS011;9607;51.600;7.558;2022-12-24T04:03:06;27.55;;;6.68;;
18947;SDS011;9607;51.600;7.558;2022-12-24T04:05:33;30.60;;;7.38;;
18947;SDS011;9607;51.600;7.558;2022-12-24T04:08:02;29.70;;;7.75;;
18947;SDS011;9607;51.600;7.558;2022-12-24T04:10:29;36.30;;;7.97;;
18947;SDS011;9607;51.600;7.558;2022-12-24T04:12:56;32.13;;;7.32;;
18947;SDS011;9607;51.600;7.558;2022-12-24T04:15:23;39.72;;;7.63;;
18947;SDS011;9607;51.600;7.558;2022-12-24T04:17:50;31.45;;;7.05;;
18947;SDS011;9607;51.600;7.558;2022-12-24T04:20:17;36.67;;;8.00;;
18947;SDS011;9607;51.600;7.558;2022-12-24T04:22:44;38.30;;;8.90;;
18947;SDS011;9607;51.600;7.558;2022-12-24T04:25:12;38.50;;;9.23;;
18947;SDS011;9607;51.600;7.558;2022-12-24T04:27:40;38.55;;;8.55;;
18947;SDS011;9607;51.600;7.558;2022-12-24T04:30:08;38.03;;;8.60;;
18947;SDS011;9607;51.600;7.558;2022-12-24T04:32:35;40.72;;;8.20;;
18947;SDS011;9607;51.600;7.558;2022-12-24T04:35:02;26.15;;;6.82;;
18947;SDS011;9607;51.600;7.558;2022-12-24T04:37:29;28.27;;;6.97;;
18947;SDS011;9607;51.600;7.558;2022-12-24T04:39:55;33.25;;;6.80;;
18947;SDS011;9607;51.600;7.558;2022-12-24T04:42:24;34.55;;;6.75;;
18947;SDS011;9607;51.600;7.558;2022-12-24T04:44:50;40.55;;;8.20;;
18947;SDS011;9607;51.600;7.558;2022-12-24T04:47:17;32.28;;;7.93;;
18947;SDS011;9607;51.600;7.558;2022-12-24T04:49:44;27.45;;;5.60;;
18947;SDS011;9607;51.600;7.558;2022-12-24T04:52:11;36.08;;;6.45;;
18947;SDS011;9607;51.600;7.558;2022-12-24T04:54:37;26.63;;;5.57;;
18947;SDS011;9607;51.600;7.558;2022-12-24T04:57:04;27.52;;;5.72;;
18947;SDS011;9607;51.600;7.558;2022-12-24T04:59:32;33.25;;;6.90;;
18947;SDS011;9607;51.600;7.558;2022-12-24T05:01:59;32.88;;;6.50;;
18947;SDS011;9607;51.600;7.558;2022-12-24T05:04:26;32.15;;;7.05;;
18947;SDS011;9607;51.600;7.558;2022-12-24T05:06:53;32.85;;;6.68;;
18947;SDS011;9607;51.600;7.558;2022-12-24T05:09:20;29.63;;;6.32;;
18947;SDS011;9607;51.600;7.558;2022-12-24T05:11:47;35.15;;;6.55;;
18947;SDS011;9607;51.600;7.558;2022-12-24T05:14:14;29.30;;;6.50;;
18947;SDS011;9607;51.600;7.558;2022-12-24T05:16:42;27.70;;;7.45;;
18947;SDS011;9607;51.600;7.558;2022-12-24T05:19:09;31.48;;;7.43;;
18947;SDS011;9607;51.600;7.558;2022-12-24T05:21:36;32.25;;;7.72;;
18947;SDS011;9607;51.600;7.558;2022-12-24T05:24:02;40.25;;;7.00;;
18947;SDS011;9607;51.600;7.558;2022-12-24T05:26:47;29.33;;;7.50;;
18947;SDS011;9607;51.600;7.558;2022-12-24T05:29:16;31.75;;;6.78;;
18947;SDS011;9607;51.600;7.558;2022-12-24T05:31:45;24.73;;;7.30;;
18947;SDS011;9607;51.600;7.558;2022-12-24T05:34:13;24.33;;;7.00;;
18947;SDS011;9607;51.600;7.558;2022-12-24T05:36:41;20.85;;;6.82;;
18947;SDS011;9607;51.600;7.558;2022-12-24T05:39:09;32.53;;;7.68;;
18947;SDS011;9607;51.600;7.558;2022-12-24T05:41:39;30.05;;;8.25;;
18947;SDS011;9607;51.600;7.558;2022-12-24T05:44:06;32.65;;;8.55;;
18947;SDS011;9607;51.600;7.558;2022-12-24T05:46:33;26.80;;;7.25;;
18947;SDS011;9607;51.600;7.558;2022-12-24T05:49:01;40.35;;;8.52;;
18947;SDS011;9607;51.600;7.558;2022-12-24T05:51:28;27.80;;;8.32;;
18947;SDS011;9607;51.600;7.558;2022-12-24T05:53:55;30.75;;;8.18;;
18947;SDS011;9607;51.600;7.558;2022-12-24T05:56:22;34.38;;;7.88;;
18947;SDS011;9607;51.600;7.558;2022-12-24T05:58:50;23.58;;;7.40;;
18947;SDS011;9607;51.600;7.558;2022-12-24T06:01:19;31.23;;;8.80;;
18947;SDS011;9607;51.600;7.558;2022-12-24T06:03:46;27.33;;;7.40;;
18947;SDS011;9607;51.600;7.558;2022-12-24T06:06:17;28.08;;;7.97;;
18947;SDS011;9607;51.600;7.558;2022-12-24T06:08:46;34.88;;;9.63;;
18947;SDS011;9607;51.600;7.558;2022-12-24T06:11:13;29.50;;;8.45;;
18947;SDS011;9607;51.600;7.558;2022-12-24T06:13:42;27.95;;;8.40;;
18947;SDS011;9607;51.600;7.558;2022-12-24T06:16:10;32.10;;;9.15;;
18947;SDS011;9607;51.600;7.558;2022-12-24T06:18:41;34.45;;;8.75;;
18947;SDS011;9607;51.600;7.558;2022-12-24T06:21:08;30.90;;;8.82;;
18947;SDS011;9607;51.600;7.558;2022-12-24T06:23:39;29.75;;;8.10;;
18947;SDS011;9607;51.600;7.558;2022-12-24T06:26:07;31.80;;;8.45;;
18947;SDS011;9607;51.600;7.558;2022-12-24T06:28:36;31.58;;;9.05;;
18947;SDS011;9607;51.600;7.558;2022-12-24T06:31:04;31.23;;;9.77;;
18947;SDS011;9607;51.600;7.558;2022-12-24T06:33:32;30.15;;;9.45;;
18947;SDS011;9607;51.600;7.558;2022-12-24T06:35:59;31.13;;;8.75;;
18947;SDS011;9607;51.600;7.558;2022-12-24T06:38:28;45.38;;;11.02;;
18947;SDS011;9607;51.600;7.558;2022-12-24T06:40:56;37.63;;;11.15;;
18947;SDS011;9607;51.600;7.558;2022-12-24T06:43:23;34.60;;;12.00;;
18947;SDS011;9607;51.600;7.558;2022-12-24T06:45:50;41.15;;;11.48;;
18947;SDS011;9607;51.600;7.558;2022-12-24T06:48:17;33.10;;;9.95;;
18947;SDS011;9607;51.600;7.558;2022-12-24T06:50:44;32.20;;;10.32;;
18947;SDS011;9607;51.600;7.558;2022-12-24T06:53:11;41.95;;;11.18;;
18947;SDS011;9607;51.600;7.558;2022-12-24T06:55:38;38.65;;;11.55;;
18947;SDS011;9607;51.600;7.558;2022-12-24T06:58:06;36.20;;;12.32;;
18947;SDS011;9607;51.600;7.558;2022-12-24T07:00:33;31.48;;;11.27;;
18947;SDS011;9607;51.600;7.558;2022-12-24T07:03:00;41.42;;;11.98;;
18947;SDS011;9607;51.600;7.558;2022-12-24T07:05:27;39.80;;;11.90;;
18947;SDS011;9607;51.600;7.558;2022-12-24T07:07:54;38.63;;;11.32;;
18947;SDS011;9607;51.600;7.558;2022-12-24T07:10:21;35.17;;;11.38;;
18947;SDS011;9607;51.600;7.558;2022-12-24T07:12:48;35.13;;;11.60;;
18947;SDS011;9607;51.600;7.558;2022-12-24T07:15:17;44.42;;;12.48;;
18947;SDS011;9607;51.600;7.558;2022-12-24T07:17:44;36.80;;;11.18;;
18947;SDS011;9607;51.600;7.558;2022-12-24T07:20:12;36.30;;;10.60;;
18947;SDS011;9607;51.600;7.558;2022-12-24T07:22:39;38.65;;;10.52;;
18947;SDS011;9607;51.600;7.558;2022-12-24T07:25:07;30.20;;;9.35;;
18947;SDS011;9607;51.600;7.558;2022-12-24T07:27:34;33.78;;;9.27;;
18947;SDS011;9607;51.600;7.558;2022-12-24T07:30:02;32.00;;;10.10;;
18947;SDS011;9607;51.600;7.558;2022-12-24T07:32:30;30.10;;;8.75;;
18947;SDS011;9607;51.600;7.558;2022-12-24T07:34:57;31.45;;;8.90;;
18947;SDS011;9607;51.600;7.558;2022-12-24T07:37:24;30.70;;;9.40;;
18947;SDS011;9607;51.600;7.558;2022-12-24T07:39:51;27.42;;;8.30;;
18947;SDS011;9607;51.600;7.558;2022-12-24T07:42:18;36.13;;;9.00;;
18947;SDS011;9607;51.600;7.558;2022-12-24T07:44:45;26.50;;;8.30;;
18947;SDS011;9607;51.600;7.558;2022-12-24T07:47:11;29.88;;;8.80;;
18947;SDS011;9607;51.600;7.558;2022-12-24T07:49:40;27.38;;;7.60;;
18947;SDS011;9607;51.600;7.558;2022-12-24T07:52:06;33.78;;;9.38;;
18947;SDS011;9607;51.600;7.558;2022-12-24T07:54:33;28.30;;;8.25;;
18947;SDS011;9607;51.600;7.558;2022-12-24T07:57:00;29.60;;;7.57;;
18947;SDS011;9607;51.600;7.558;2022-12-24T07:59:27;25.45;;;7.05;;
18947;SDS011;9607;51.600;7.558;2022-12-24T08:01:54;32.75;;;7.95;;
18947;SDS011;9607;51.600;7.558;2022-12-24T08:04:21;24.27;;;7.47;;
18947;SDS011;9607;51.600;7.558;2022-12-24T08:06:49;38.10;;;7.82;;
18947;SDS011;9607;51.600;7.558;2022-12-24T08:09:16;38.58;;;7.50;;
18947;SDS011;9607;51.600;7.558;2022-12-24T08:11:43;26.45;;;7.38;;
18947;SDS011;9607;51.600;7.558;2022-12-24T08:14:13;27.33;;;7.30;;
18947;SDS011;9607;51.600;7.558;2022-12-24T08:16:40;27.83;;;7.55;;
18947;SDS011;9607;51.600;7.558;2022-12-24T08:19:07;32.70;;;7.90;;
18947;SDS011;9607;51.600;7.558;2022-12-24T08:21:33;26.60;;;8.00;;
18947;SDS011;9607;51.600;7.558;2022-12-24T08:24:02;29.27;;;8.25;;
18947;SDS011;9607;51.600;7.558;2022-12-24T08:26:29;29.48;;;7.70;;
18947;SDS011;9607;51.600;7.558;2022-12-24T08:28:56;34.38;;;8.93;;
18947;SDS011;9607;51.600;7.558;2022-12-24T08:31:22;34.40;;;8.35;;
18947;SDS011;9607;51.600;7.558;2022-12-24T08:33:49;29.30;;;7.80;;
18947;SDS011;9607;51.600;7.558;2022-12-24T08:36:16;26.95;;;7.80;;
18947;SDS011;9607;51.600;7.558;2022-12-24T08:38:43;35.08;;;8.93;;
18947;SDS011;9607;51.600;7.558;2022-12-24T08:41:12;29.25;;;7.70;;
18947;SDS011;9607;51.600;7.558;2022-12-24T08:43:38;32.65;;;8.32;;
18947;SDS011;9607;51.600;7.558;2022-12-24T08:46:05;26.38;;;7.75;;
18947;SDS011;9607;51.600;7.558;2022-12-24T08:48:32;35.05;;;8.48;;
18947;SDS011;9607;51.600;7.558;2022-12-24T08:50:59;39.55;;;8.60;;
18947;SDS011;9607;51.600;7.558;2022-12-24T08:53:26;40.65;;;8.20;;
18947;SDS011;9607;51.600;7.558;2022-12-24T08:55:59;31.83;;;8.80;;
18947;SDS011;9607;51.600;7.558;2022-12-24T08:58:30;33.13;;;7.72;;
18947;SDS011;9607;51.600;7.558;2022-12-24T09:00:58;29.23;;;7.13;;
18947;SDS011;9607;51.600;7.558;2022-12-24T09:03:29;28.67;;;7.38;;
18947;SDS011;9607;51.600;7.558;2022-12-24T09:05:56;25.88;;;6.00;;
18947;SDS011;9607;51.600;7.558;2022-12-24T09:08:22;30.17;;;6.43;;
18947;SDS011;9607;51.600;7.558;2022-12-24T09:10:49;24.88;;;8.07;;
18947;SDS011;9607;51.600;7.558;2022-12-24T09:13:16;33.97;;;6.80;;
18947;SDS011;9607;51.600;7.558;2022-12-24T09:15:52;23.63;;;6.65;;
18947;SDS011;9607;51.600;7.558;2022-12-24T09:18:19;31.00;;;6.43;;
18947;SDS011;9607;51.600;7.558;2022-12-24T09:20:46;38.33;;;6.93;;
18947;SDS011;9607;51.600;7.558;2022-12-24T09:23:13;29.02;;;6.82;;
18947;SDS011;9607;51.600;7.558;2022-12-24T09:25:40;18.92;;;6.07;;
18947;SDS011;9607;51.600;7.558;2022-12-24T09:28:07;37.05;;;7.68;;
18947;SDS011;9607;51.600;7.558;2022-12-24T09:30:35;35.00;;;7.97;;
18947;SDS011;9607;51.600;7.558;2022-12-24T09:33:04;28.27;;;5.97;;
18947;SDS011;9607;51.600;7.558;2022-12-24T09:35:31;27.77;;;7.10;;
18947;SDS011;9607;51.600;7.558;2022-12-24T09:37:58;30.95;;;6.53;;
18947;SDS011;9607;51.600;7.558;2022-12-24T09:40:28;36.30;;;6.97;;
18947;SDS011;9607;51.600;7.558;2022-12-24T09:43:00;34.33;;;7.25;;
18947;SDS011;9607;51.600;7.558;2022-12-24T09:45:32;25.73;;;5.93;;
18947;SDS011;9607;51.600;7.558;2022-12-24T09:48:08;39.45;;;8.10;;
18947;SDS011;9607;51.600;7.558;2022-12-24T09:50:38;26.33;;;6.03;;
18947;SDS011;9607;51.600;7.558;2022-12-24T09:53:10;27.90;;;6.03;;
18947;SDS011;9607;51.600;7.558;2022-12-24T09:55:43;27.15;;;6.95;;
18947;SDS011;9607;51.600;7.558;2022-12-24T09:58:14;25.77;;;6.25;;
18947;SDS011;9607;51.600;7.558;2022-12-24T10:00:45;36.05;;;6.88;;
18947;SDS011;9607;51.600;7.558;2022-12-24T10:03:14;31.60;;;6.65;;
18947;SDS011;9607;51.600;7.558;2022-12-24T10:05:43;34.47;;;6.85;;
18947;SDS011;9607;51.600;7.558;2022-12-24T10:08:19;41.08;;;7.40;;
18947;SDS011;9607;51.600;7.558;2022-12-24T10:10:54;27.50;;;6.40;;
18947;SDS011;9607;51.600;7.558;2022-12-24T10:13:29;30.52;;;7.22;;
18947;SDS011;9607;51.600;7.558;2022-12-24T10:16:06;25.83;;;7.80;;
18947;SDS011;9607;51.600;7.558;2022-12-24T10:18:45;30.67;;;7.65;;
18947;SDS011;9607;51.600;7.558;2022-12-24T10:21:23;36.58;;;7.68;;
18947;SDS011;9607;51.600;7.558;2022-12-24T10:23:59;35.30;;;7.63;;
18947;SDS011;9607;51.600;7.558;2022-12-24T10:26:34;42.15;;;10.20;;
18947;SDS011;9607;51.600;7.558;2022-12-24T10:29:11;30.80;;;7.63;;
18947;SDS011;9607;51.600;7.558;2022-12-24T10:31:44;38.33;;;8.48;;
18947;SDS011;9607;51.600;7.558;2022-12-24T10:34:21;36.53;;;7.40;;
18947;SDS011;9607;51.600;7.558;2022-12-24T10:36:49;27.38;;;6.38;;
18947;SDS011;9607;51.600;7.558;2022-12-24T10:39:17;18.13;;;6.10;;
18947;SDS011;9607;51.600;7.558;2022-12-24T10:41:46;29.75;;;8.15;;
18947;SDS011;9607;51.600;7.558;2022-12-24T10:44:15;28.98;;;6.75;;
18947;SDS011;9607;51.600;7.558;2022-12-24T10:46:47;28.67;;;7.38;;
18947;SDS011;9607;51.600;7.558;2022-12-24T10:49:15;28.73;;;6.63;;
18947;SDS011;9607;51.600;7.558;2022-12-24T10:51:46;32.90;;;8.10;;
18947;SDS011;9607;51.600;7.558;2022-12-24T10:54:16;22.75;;;7.03;;
18947;SDS011;9607;51.600;7.558;2022-12-24T10:56:47;31.23;;;7.30;;
18947;SDS011;9607;51.600;7.558;2022-12-24T10:59:23;28.17;;;6.65;;
18947;SDS011;9607;51.600;7.558;2022-12-24T11:01:51;28.02;;;7.10;;
18947;SDS011;9607;51.600;7.558;2022-12-24T11:04:20;41.70;;;7.60;;
18947;SDS011;9607;51.600;7.558;2022-12-24T11:06:57;32.47;;;7.38;;
18947;SDS011;9607;51.600;7.558;2022-12-24T11:09:26;26.48;;;7.38;;
18947;SDS011;9607;51.600;7.558;2022-12-24T11:11:55;23.05;;;6.60;;
18947;SDS011;9607;51.600;7.558;2022-12-24T11:14:23;24.83;;;6.63;;
18947;SDS011;9607;51.600;7.558;2022-12-24T11:16:59;27.02;;;6.82;;
18947;SDS011;9607;51.600;7.558;2022-12-24T11:19:28;22.92;;;6.05;;
18947;SDS011;9607;51.600;7.558;2022-12-24T11:22:00;30.70;;;6.95;;
18947;SDS011;9607;51.600;7.558;2022-12-24T11:24:29;34.60;;;7.80;;
18947;SDS011;9607;51.600;7.558;2022-12-24T11:29:50;28.73;;;7.22;;
18947;SDS011;9607;51.600;7.558;2022-12-24T11:32:18;35.70;;;8.10;;
18947;SDS011;9607;51.600;7.558;2022-12-24T11:34:46;28.75;;;7.63;;
18947;SDS011;9607;51.600;7.558;2022-12-24T11:37:16;26.75;;;7.50;;
18947;SDS011;9607;51.600;7.558;2022-12-24T11:39:46;26.23;;;6.97;;
18947;SDS011;9607;51.600;7.558;2022-12-24T11:42:21;27.33;;;7.25;;
18947;SDS011;9607;51.600;7.558;2022-12-24T11:44:51;24.85;;;6.78;;
18947;SDS011;9607;51.600;7.558;2022-12-24T11:47:28;24.17;;;7.13;;
18947;SDS011;9607;51.600;7.558;2022-12-24T11:50:10;27.08;;;7.18;;
18947;SDS011;9607;51.600;7.558;2022-12-24T11:52:47;31.58;;;7.38;;
18947;SDS011;9607;51.600;7.558;2022-12-24T11:55:17;27.48;;;6.63;;
18947;SDS011;9607;51.600;7.558;2022-12-24T11:57:52;25.20;;;7.20;;
18947;SDS011;9607;51.600;7.558;2022-12-24T12:00:23;23.30;;;6.90;;
18947;SDS011;9607;51.600;7.558;2022-12-24T12:02:51;30.05;;;7.68;;
18947;SDS011;9607;51.600;7.558;2022-12-24T12:05:22;22.30;;;6.13;;
18947;SDS011;9607;51.600;7.558;2022-12-24T12:07:55;27.38;;;7.10;;
18947;SDS011;9607;51.600;7.558;2022-12-24T12:10:29;24.23;;;7.25;;
18947;SDS011;9607;51.600;7.558;2022-12-24T12:12:58;19.50;;;6.50;;
18947;SDS011;9607;51.600;7.558;2022-12-24T12:15:31;23.40;;;7.22;;
18947;SDS011;9607;51.600;7.558;2022-12-24T12:18:02;30.02;;;7.65;;
18947;SDS011;9607;51.600;7.558;2022-12-24T12:20:35;32.50;;;7.85;;
18947;SDS011;9607;51.600;7.558;2022-12-24T12:23:10;23.95;;;7.28;;
18947;SDS011;9607;51.600;7.558;2022-12-24T12:25:43;22.83;;;7.43;;
18947;SDS011;9607;51.600;7.558;2022-12-24T12:28:14;32.53;;;8.13;;
18947;SDS011;9607;51.600;7.558;2022-12-24T12:30:45;31.58;;;8.02;;
18947;SDS011;9607;51.600;7.558;2022-12-24T12:33:21;27.13;;;7.35;;
18947;SDS011;9607;51.600;7.558;2022-12-24T12:35:56;34.47;;;8.00;;
18947;SDS011;9607;51.600;7.558;2022-12-24T12:38:28;25.65;;;6.88;;
18947;SDS011;9607;51.600;7.558;2022-12-24T12:40:59;22.88;;;7.28;;
18947;SDS011;9607;51.600;7.558;2022-12-24T12:43:38;20.83;;;7.05;;
18947;SDS011;9607;51.600;7.558;2022-12-24T12:46:20;29.40;;;7.13;;
18947;SDS011;9607;51.600;7.558;2022-12-24T12:49:05;24.42;;;7.18;;
18947;SDS011;9607;51.600;7.558;2022-12-24T12:51:47;23.75;;;6.88;;
18947;SDS011;9607;51.600;7.558;2022-12-24T12:54:24;27.38;;;6.90;;
18947;SDS011;9607;51.600;7.558;2022-12-24T12:57:04;29.27;;;7.75;;
18947;SDS011;9607;51.600;7.558;2022-12-24T12:59:35;27.25;;;7.18;;
18947;SDS011;9607;51.600;7.558;2022-12-24T13:02:12;26.17;;;7.50;;
18947;SDS011;9607;51.600;7.558;2022-12-24T13:05:01;20.52;;;6.47;;
18947;SDS011;9607;51.600;7.558;2022-12-24T13:07:54;25.38;;;6.63;;
18947;SDS011;9607;51.600;7.558;2022-12-24T13:10:42;24.98;;;7.80;;
18947;SDS011;9607;51.600;7.558;2022-12-24T13:13:24;23.45;;;6.10;;
18947;SDS011;9607;51.600;7.558;2022-12-24T13:16:19;28.00;;;7.28;;
18947;SDS011;9607;51.600;7.558;2022-12-24T13:19:09;25.75;;;7.28;;
18947;SDS011;9607;51.600;7.558;2022-12-24T13:21:48;23.75;;;6.75;;
18947;SDS011;9607;51.600;7.558;2022-12-24T13:24:16;22.38;;;6.57;;
18947;SDS011;9607;51.600;7.558;2022-12-24T13:29:42;22.70;;;6.97;;
18947;SDS011;9607;51.600;7.558;2022-12-24T13:35:30;23.75;;;6.18;;
18947;SDS011;9607;51.600;7.558;2022-12-24T13:44:02;25.90;;;6.80;;
18947;SDS011;9607;51.600;7.558;2022-12-24T13:46:45;19.33;;;5.05;;
18947;SDS011;9607;51.600;7.558;2022-12-24T13:49:25;25.73;;;6.22;;
18947;SDS011;9607;51.600;7.558;2022-12-24T13:52:07;21.50;;;6.47;;
18947;SDS011;9607;51.600;7.558;2022-12-24T13:54:44;23.90;;;5.65;;
18947;SDS011;9607;51.600;7.558;2022-12-24T14:00:26;29.05;;;6.45;;
18947;SDS011;9607;51.600;7.558;2022-12-24T14:03:01;24.55;;;5.85;;
18947;SDS011;9607;51.600;7.558;2022-12-24T14:05:32;23.58;;;6.00;;
18947;SDS011;9607;51.600;7.558;2022-12-24T14:08:03;22.08;;;5.57;;
18947;SDS011;9607;51.600;7.558;2022-12-24T14:10:35;15.02;;;5.05;;
18947;SDS011;9607;51.600;7.558;2022-12-24T14:13:05;25.15;;;6.22;;
18947;SDS011;9607;51.600;7.558;2022-12-24T14:18:34;21.73;;;6.22;;
18947;SDS011;9607;51.600;7.558;2022-12-24T14:21:04;24.25;;;6.22;;
18947;SDS011;9607;51.600;7.558;2022-12-24T14:23:36;23.40;;;6.60;;
18947;SDS011;9607;51.600;7.558;2022-12-24T14:26:14;21.70;;;5.95;;
18947;SDS011;9607;51.600;7.558;2022-12-24T14:28:44;27.95;;;6.35;;
18947;SDS011;9607;51.600;7.558;2022-12-24T14:31:16;21.17;;;5.95;;
18947;SDS011;9607;51.600;7.558;2022-12-24T14:33:44;25.63;;;5.97;;
18947;SDS011;9607;51.600;7.558;2022-12-24T14:36:11;22.90;;;5.80;;
18947;SDS011;9607;51.600;7.558;2022-12-24T14:38:40;22.70;;;5.93;;
18947;SDS011;9607;51.600;7.558;2022-12-24T14:41:13;20.02;;;5.80;;
18947;SDS011;9607;51.600;7.558;2022-12-24T14:43:50;21.88;;;5.75;;
18947;SDS011;9607;51.600;7.558;2022-12-24T14:46:25;19.35;;;5.70;;
18947;SDS011;9607;51.600;7.558;2022-12-24T14:48:59;24.02;;;5.88;;
18947;SDS011;9607;51.600;7.558;2022-12-24T14:51:34;20.35;;;5.70;;
18947;SDS011;9607;51.600;7.558;2022-12-24T14:54:14;15.55;;;5.72;;
18947;SDS011;9607;51.600;7.558;2022-12-24T14:57:05;16.95;;;5.18;;
18947;SDS011;9607;51.600;7.558;2022-12-24T14:59:49;16.70;;;5.53;;
18947;SDS011;9607;51.600;7.558;2022-12-24T15:02:23;16.33;;;5.13;;
18947;SDS011;9607;51.600;7.558;2022-12-24T15:05:08;24.00;;;5.88;;
18947;SDS011;9607;51.600;7.558;2022-12-24T15:07:40;19.00;;;5.72;;
18947;SDS011;9607;51.600;7.558;2022-12-24T15:10:24;24.67;;;6.80;;
18947;SDS011;9607;51.600;7.558;2022-12-24T15:12:54;24.05;;;6.90;;
18947;SDS011;9607;51.600;7.558;2022-12-24T15:15:22;32.80;;;8.07;;
18947;SDS011;9607;51.600;7.558;2022-12-24T15:17:51;18.13;;;5.72;;
18947;SDS011;9607;51.600;7.558;2022-12-24T15:20:19;17.40;;;5.47;;
18947;SDS011;9607;51.600;7.558;2022-12-24T15:22:49;17.17;;;5.50;;
18947;SDS011;9607;51.600;7.558;2022-12-24T15:25:20;13.98;;;5.13;;
18947;SDS011;9607;51.600;7.558;2022-12-24T15:27:49;21.98;;;6.55;;
18947;SDS011;9607;51.600;7.558;2022-12-24T15:30:17;17.27;;;6.18;;